createdAt,value
2022-11-02T00:00:42.011Z,1.35
2022-11-02T00:03:09.129Z,1.17
2022-11-02T00:05:36.651Z,2.15
2022-11-02T00:08:04.058Z,1.52
2022-11-02T00:10:31.033Z,1.48
2022-11-02T00:12:58.281Z,1.13
2022-11-02T00:15:28.482Z,1.38
2022-11-02T00:18:08.140Z,1.42
2022-11-02T00:20:37.204Z,1.50
2022-11-02T00:23:07.583Z,1.98
2022-11-02T00:25:34.882Z,1.48
2022-11-02T00:28:01.805Z,1.83
2022-11-02T00:30:29.302Z,1.70
2022-11-02T00:32:57.145Z,1.35
2022-11-02T00:35:24.054Z,1.20
2022-11-02T00:37:51.231Z,1.90
2022-11-02T00:40:18.505Z,1.75
2022-11-02T00:42:45.559Z,1.45
2022-11-02T00:45:12.460Z,2.25
2022-11-02T00:47:39.342Z,1.52
2022-11-02T00:50:06.739Z,1.30
2022-11-02T00:52:33.630Z,2.42
2022-11-02T00:55:00.735Z,1.48
2022-11-02T00:57:27.640Z,1.90
2022-11-02T00:59:54.556Z,1.65
2022-11-02T01:02:21.584Z,2.20
2022-11-02T01:04:48.540Z,1.50
2022-11-02T01:07:15.455Z,1.23
2022-11-02T01:09:42.338Z,1.67
2022-11-02T01:12:09.228Z,1.73
2022-11-02T01:14:36.499Z,1.13
2022-11-02T01:17:04.820Z,1.25
2022-11-02T01:19:31.719Z,1.10
2022-11-02T01:21:58.631Z,1.17
2022-11-02T01:24:25.530Z,1.20
2022-11-02T01:26:53.142Z,1.67
2022-11-02T01:29:20.073Z,1.85
2022-11-02T01:31:47.103Z,1.23
2022-11-02T01:34:14.494Z,1.88
2022-11-02T01:36:41.890Z,1.52
2022-11-02T01:39:08.908Z,1.00
2022-11-02T01:41:35.855Z,1.17
2022-11-02T01:44:03.845Z,1.48
2022-11-02T01:46:46.040Z,1.30
2022-11-02T01:49:17.240Z,1.05
2022-11-02T01:51:50.434Z,1.08
2022-11-02T01:54:22.221Z,1.50
2022-11-02T01:56:53.767Z,1.20
2022-11-02T01:59:27.012Z,1.17
2022-11-02T02:01:54.570Z,0.80
2022-11-02T02:04:23.433Z,0.88
2022-11-02T02:06:51.262Z,1.40
2022-11-02T02:09:19.594Z,1.20
2022-11-02T02:11:46.472Z,1.15
2022-11-02T02:14:19.438Z,0.90
2022-11-02T02:17:05.200Z,0.63
2022-11-02T02:19:46.064Z,0.60
2022-11-02T02:22:43.474Z,0.90
2022-11-02T02:25:20.375Z,0.93
2022-11-02T02:28:33.426Z,0.95
2022-11-02T02:31:14.288Z,0.75
2022-11-02T02:33:46.873Z,1.10
2022-11-02T02:36:21.747Z,1.10
2022-11-02T02:39:00.446Z,0.90
2022-11-02T02:41:27.300Z,1.20
2022-11-02T02:43:57.473Z,0.98
2022-11-02T02:46:40.478Z,0.90
2022-11-02T02:49:13.883Z,0.63
2022-11-02T02:51:42.026Z,1.50
2022-11-02T02:54:20.069Z,1.10
2022-11-02T02:56:55.408Z,1.55
2022-11-02T02:59:32.791Z,1.05
2022-11-02T03:02:00.077Z,1.33
2022-11-02T03:04:27.176Z,0.90
2022-11-02T03:06:58.847Z,0.55
2022-11-02T03:09:36.944Z,0.70
2022-11-02T03:12:33.302Z,1.05
2022-11-02T03:15:00.157Z,0.85
2022-11-02T03:17:36.026Z,0.70
2022-11-02T03:20:35.685Z,0.73
2022-11-02T03:23:33.244Z,0.70
2022-11-02T03:26:17.068Z,0.77
2022-11-02T03:29:08.918Z,0.60
2022-11-02T03:31:55.446Z,1.23
2022-11-02T03:39:24.470Z,0.63
2022-11-02T03:41:52.912Z,0.80
2022-11-02T19:43:08.224Z,2.00
2022-11-02T19:45:35.424Z,1.58
2022-11-02T19:48:03.609Z,1.42
2022-11-02T19:50:31.117Z,1.55
2022-11-02T19:53:00.311Z,2.10
2022-11-02T19:55:29.509Z,1.30
2022-11-02T19:57:56.452Z,1.40
2022-11-02T20:00:23.411Z,2.17
2022-11-02T20:02:50.945Z,2.67
2022-11-02T20:05:17.928Z,1.60
2022-11-02T20:07:44.790Z,2.35
2022-11-02T20:10:11.892Z,3.15
2022-11-02T20:12:39.752Z,3.03
2022-11-02T20:15:08.451Z,3.90
2022-11-02T20:17:51.878Z,3.20
2022-11-02T20:20:22.256Z,3.13
2022-11-02T20:22:51.863Z,2.13
2022-11-02T20:25:18.787Z,1.80
2022-11-02T20:27:45.637Z,3.30
2022-11-02T20:30:12.755Z,3.17
2022-11-02T20:32:39.752Z,3.05
2022-11-02T20:35:12.489Z,2.80
2022-11-02T20:37:40.392Z,2.35
2022-11-02T20:40:08.732Z,2.40
2022-11-02T20:42:36.317Z,3.80
2022-11-02T20:45:03.438Z,5.18
2022-11-02T20:47:30.630Z,4.80
2022-11-02T20:49:57.527Z,5.07
2022-11-02T20:52:24.390Z,4.38
2022-11-02T20:54:51.626Z,4.78
2022-11-02T20:57:18.554Z,4.97
2022-11-02T20:59:45.584Z,5.65
2022-11-02T21:02:12.984Z,5.95
2022-11-02T21:04:40.744Z,5.57
2022-11-02T21:07:08.025Z,7.75
2022-11-02T21:09:35.701Z,6.03
2022-11-02T21:12:21.214Z,6.43
